createdAt,value
2022-09-24T00:02:04.016Z,14.58
2022-09-24T00:04:31.614Z,14.57
2022-09-24T00:07:00.173Z,14.56
2022-09-24T00:09:29.235Z,14.52
2022-09-24T00:11:56.673Z,14.52
2022-09-24T00:14:25.176Z,14.52
2022-09-24T00:16:52.539Z,14.56
2022-09-24T00:19:20.141Z,14.50
2022-09-24T00:21:48.804Z,14.46
2022-09-24T00:24:36.390Z,14.41
2022-09-24T00:27:06.645Z,14.37
2022-09-24T00:29:35.911Z,14.37
2022-09-24T00:32:37.087Z,14.35
2022-09-24T00:35:04.856Z,14.38
2022-09-24T00:37:32.220Z,14.41
2022-09-24T00:40:00.973Z,14.43
2022-09-24T00:42:29.652Z,14.45
2022-09-24T00:44:57.899Z,14.46
2022-09-24T00:47:36.067Z,14.50
2022-09-24T00:50:17.847Z,14.53
2022-09-24T00:52:52.440Z,14.53
2022-09-24T00:55:23.834Z,14.57
2022-09-24T00:57:59.864Z,14.60
2022-09-24T01:00:28.759Z,14.66
2022-09-24T01:03:04.602Z,14.69
2022-09-24T01:05:33.198Z,14.68
2022-09-24T01:08:01.568Z,14.70
2022-09-24T01:10:48.114Z,14.73
2022-09-24T01:13:57.293Z,14.76
2022-09-24T01:16:50.479Z,14.73
2022-09-24T01:19:32.999Z,14.70
2022-09-24T01:22:09.250Z,14.73
2022-09-24T01:24:55.663Z,14.71
2022-09-24T01:27:39.788Z,14.72
2022-09-24T01:30:11.312Z,14.72
2022-09-24T01:32:56.696Z,14.74
2022-09-24T01:35:39.340Z,14.79
2022-09-24T01:38:29.627Z,14.81
2022-09-24T01:41:00.271Z,14.82
2022-09-24T01:43:32.996Z,14.72
2022-09-24T01:46:07.078Z,14.73
2022-09-24T01:48:38.465Z,14.70
2022-09-24T01:51:09.671Z,14.65
2022-09-24T01:53:46.460Z,14.64
2022-09-24T01:56:26.124Z,14.67
2022-09-24T01:59:02.333Z,14.62
2022-09-24T02:01:35.126Z,14.66
2022-09-24T02:04:14.264Z,14.64
2022-09-24T02:06:54.553Z,14.67
2022-09-24T02:09:38.035Z,14.68
2022-09-24T02:12:12.124Z,14.68
2022-09-24T02:14:48.690Z,14.69
2022-09-24T02:17:18.059Z,14.62
2022-09-24T02:19:49.132Z,14.60
2022-09-24T02:22:18.766Z,14.58
2022-09-24T02:24:53.491Z,14.57
2022-09-24T02:27:22.091Z,14.56
2022-09-24T02:29:49.761Z,14.59
2022-09-24T02:32:19.899Z,14.58
2022-09-24T02:34:52.898Z,14.50
2022-09-24T02:37:23.592Z,14.46
2022-09-24T02:39:52.292Z,14.52
2022-09-24T02:42:20.588Z,14.50
2022-09-24T02:44:48.092Z,14.51
2022-09-24T02:47:19.699Z,14.49
2022-09-24T02:49:47.131Z,14.45
2022-09-24T02:52:17.212Z,14.46
2022-09-24T02:54:45.356Z,14.46
2022-09-24T02:57:14.456Z,14.47
2022-09-24T02:59:41.777Z,14.50
2022-09-24T03:02:09.467Z,14.48
2022-09-24T03:04:37.981Z,14.49
2022-09-24T03:07:05.700Z,14.44
2022-09-24T03:09:33.122Z,14.44
2022-09-24T03:12:01.642Z,14.43
2022-09-24T03:14:29.034Z,14.46
2022-09-24T03:16:57.290Z,14.41
2022-09-24T03:19:25.527Z,14.45
2022-09-24T03:21:53.011Z,14.40
2022-09-24T03:24:20.423Z,14.41
2022-09-24T03:26:49.376Z,14.39
2022-09-24T03:29:38.120Z,14.37
2022-09-24T03:32:05.976Z,14.35
2022-09-24T03:34:33.352Z,14.35
2022-09-24T03:37:00.890Z,14.32
2022-09-24T03:39:31.331Z,14.34
2022-09-24T03:41:59.599Z,14.33
2022-09-24T03:44:27.290Z,14.31
2022-09-24T03:46:57.403Z,14.32
2022-09-24T03:49:25.883Z,14.30
2022-09-24T03:51:55.669Z,14.30
2022-09-24T03:54:23.795Z,14.28
2022-09-24T03:56:51.206Z,14.30
2022-09-24T03:59:18.860Z,14.29
2022-09-24T04:01:47.872Z,14.28
2022-09-24T04:04:16.339Z,14.29
2022-09-24T04:06:44.328Z,14.29
2022-09-24T04:09:11.726Z,14.29
2022-09-24T04:11:40.743Z,14.27
2022-09-24T04:14:08.230Z,14.27
2022-09-24T04:16:36.668Z,14.26
2022-09-24T04:19:04.112Z,14.26
2022-09-24T04:21:31.933Z,14.27
2022-09-24T04:24:02.424Z,14.27
2022-09-24T04:26:31.056Z,14.27
2022-09-24T04:28:59.334Z,14.29
2022-09-24T04:31:29.329Z,14.30
2022-09-24T04:33:58.341Z,14.30
2022-09-24T04:36:27.047Z,14.29
2022-09-24T04:38:54.836Z,14.29
2022-09-24T04:41:22.664Z,14.31
2022-09-24T04:43:51.460Z,14.31
2022-09-24T04:46:20.236Z,14.32
2022-09-24T04:48:47.803Z,14.30
2022-09-24T04:51:17.788Z,14.34
2022-09-24T04:53:48.742Z,14.32
2022-09-24T04:56:16.142Z,14.30
2022-09-24T04:58:43.420Z,14.29
2022-09-24T05:01:12.092Z,14.30
2022-09-24T05:03:39.682Z,14.31
2022-09-24T05:06:08.640Z,14.33
2022-09-24T05:08:36.008Z,14.37
2022-09-24T05:11:03.865Z,14.41
2022-09-24T05:13:31.255Z,14.47
2022-09-24T05:16:01.374Z,14.54
2022-09-24T05:18:28.862Z,14.50
2022-09-24T05:20:56.729Z,14.46
2022-09-24T05:23:24.980Z,14.51
2022-09-24T05:26:11.448Z,14.54
2022-09-24T05:28:41.073Z,14.85
2022-09-24T05:31:10.846Z,14.85
2022-09-24T05:33:39.560Z,14.84
2022-09-24T05:36:07.363Z,14.88
2022-09-24T05:38:35.241Z,14.83
2022-09-24T05:41:03.776Z,14.78
2022-09-24T05:43:31.984Z,14.68
2022-09-24T05:45:59.386Z,14.83
2022-09-24T05:48:26.882Z,14.66
2022-09-24T05:50:57.180Z,14.59
2022-09-24T05:53:24.998Z,14.64
2022-09-24T05:55:53.563Z,14.58
2022-09-24T05:58:21.311Z,14.50
2022-09-24T06:00:49.977Z,14.62
2022-09-24T06:03:19.879Z,14.77
2022-09-24T06:05:49.771Z,14.74
2022-09-24T06:08:19.157Z,14.69
2022-09-24T06:10:47.507Z,14.69
2022-09-24T06:13:22.037Z,14.67
2022-09-24T06:15:49.614Z,14.60
2022-09-24T06:18:17.190Z,14.59
2022-09-24T06:20:45.005Z,14.50
2022-09-24T06:23:14.243Z,14.49
2022-09-24T06:25:42.520Z,14.40
2022-09-24T06:28:10.048Z,14.37
2022-09-24T06:30:39.443Z,14.45
2022-09-24T06:33:14.747Z,14.47
2022-09-24T06:35:45.291Z,14.52
2022-09-24T06:38:18.778Z,14.56
2022-09-24T06:40:48.800Z,14.62
2022-09-24T06:43:18.165Z,14.64
2022-09-24T06:45:46.351Z,14.68
2022-09-24T06:48:14.709Z,14.70
2022-09-24T06:50:45.192Z,14.69
2022-09-24T06:53:13.206Z,14.73
2022-09-24T06:55:41.116Z,14.78
2022-09-24T06:58:15.186Z,14.80
2022-09-24T07:00:44.970Z,14.89
2022-09-24T07:03:15.780Z,14.99
2022-09-24T07:05:43.944Z,14.94
2022-09-24T07:08:11.698Z,14.95
2022-09-24T07:10:45.413Z,14.94
2022-09-24T07:13:14.385Z,15.08
2022-09-24T07:15:42.947Z,15.18
2022-09-24T07:18:12.359Z,15.27
2022-09-24T07:20:40.342Z,15.76
2022-09-24T07:23:09.945Z,16.43
2022-09-24T07:25:39.502Z,17.13
2022-09-24T07:28:10.376Z,17.38
2022-09-24T07:30:39.215Z,17.45
2022-09-24T07:33:08.011Z,17.73
2022-09-24T07:35:38.424Z,18.30
2022-09-24T07:38:12.403Z,18.67
2022-09-24T07:40:40.506Z,19.19
2022-09-24T07:43:12.494Z,19.89
2022-09-24T07:45:41.533Z,20.42
2022-09-24T07:48:10.517Z,20.43
2022-09-24T07:50:40.792Z,20.17
2022-09-24T07:53:12.235Z,19.94
2022-09-24T07:55:40.902Z,19.58
2022-09-24T07:58:12.828Z,19.37
2022-09-24T08:00:40.631Z,19.25
2022-09-24T08:03:08.074Z,19.23
2022-09-24T08:05:36.520Z,19.17
2022-09-24T08:08:04.734Z,19.16
2022-09-24T08:10:32.587Z,19.73
2022-09-24T08:13:02.465Z,20.76
2022-09-24T08:15:33.329Z,21.84
2022-09-24T08:18:06.496Z,22.79
2022-09-24T08:20:36.715Z,23.61
2022-09-24T08:23:06.889Z,24.34
2022-09-24T08:25:34.317Z,24.90
2022-09-24T08:28:06.155Z,24.92
2022-09-24T08:30:35.747Z,24.34
2022-09-24T08:33:08.223Z,24.23
2022-09-24T08:35:37.093Z,23.88
2022-09-24T08:38:04.451Z,23.49
2022-09-24T08:40:46.279Z,23.46
2022-09-24T08:43:28.809Z,22.59
2022-09-24T08:46:18.724Z,21.85
2022-09-24T08:48:52.064Z,21.79
2022-09-24T08:51:22.397Z,21.61
2022-09-24T08:54:14.579Z,20.22
2022-09-24T08:56:46.246Z,19.91
2022-09-24T08:59:34.137Z,19.57
2022-09-24T09:02:24.549Z,19.50
2022-09-24T09:05:16.099Z,19.38
2022-09-24T09:07:55.522Z,19.56
2022-09-24T09:10:29.236Z,19.78
2022-09-24T09:13:11.241Z,20.01
2022-09-24T09:15:46.735Z,20.19
2022-09-24T09:18:32.971Z,20.09
2022-09-24T09:21:26.986Z,19.88
2022-09-24T09:23:58.195Z,20.26
2022-09-24T09:26:27.959Z,20.25
2022-09-24T09:29:00.245Z,19.86
2022-09-24T09:32:00.254Z,20.36
2022-09-24T09:34:47.072Z,20.43
2022-09-24T09:37:26.235Z,20.73
2022-09-24T09:40:12.094Z,21.21
2022-09-24T09:42:40.644Z,20.45
2022-09-24T09:45:32.935Z,20.43
2022-09-24T09:48:04.437Z,20.63
2022-09-24T09:50:49.017Z,20.38
2022-09-24T09:53:25.072Z,20.60
2022-09-24T09:56:03.463Z,20.78
2022-09-24T09:58:33.751Z,20.41
2022-09-24T10:01:07.472Z,20.49
2022-09-24T10:03:47.327Z,20.67
2022-09-24T10:06:29.058Z,20.94
2022-09-24T10:09:29.169Z,20.94
2022-09-24T10:12:10.338Z,20.91
2022-09-24T10:14:38.288Z,20.98
2022-09-24T10:17:06.832Z,21.08
2022-09-24T10:19:36.740Z,21.28
2022-09-24T10:22:12.012Z,21.33
2022-09-24T10:24:43.522Z,21.08
2022-09-24T10:27:15.160Z,20.76
2022-09-24T10:30:01.445Z,20.27
2022-09-24T10:32:32.425Z,20.39
2022-09-24T10:35:21.280Z,20.06
2022-09-24T10:38:01.416Z,20.03
2022-09-24T10:40:40.442Z,20.34
2022-09-24T10:43:17.104Z,20.68
2022-09-24T10:45:53.411Z,21.19
2022-09-24T10:48:27.848Z,21.67
2022-09-24T10:51:13.290Z,21.83
2022-09-24T10:53:51.253Z,21.61
2022-09-24T10:56:43.566Z,21.85
2022-09-24T10:59:23.086Z,21.83
2022-09-24T11:02:10.505Z,21.71
2022-09-24T11:04:46.843Z,21.33
2022-09-24T11:07:30.044Z,21.22
2022-09-24T11:10:41.424Z,20.79
2022-09-24T11:13:32.056Z,20.41
2022-09-24T11:16:18.347Z,20.34
2022-09-24T11:18:53.037Z,20.43
2022-09-24T11:21:24.350Z,20.58
2022-09-24T11:24:39.423Z,20.88
2022-09-24T11:27:35.536Z,21.29
2022-09-24T11:30:18.632Z,21.20
2022-09-24T11:32:58.824Z,21.12
2022-09-24T11:35:41.122Z,21.38
2022-09-24T11:38:45.300Z,21.29
2022-09-24T11:41:17.327Z,21.30
2022-09-24T11:44:01.092Z,20.89
2022-09-24T11:46:56.835Z,20.97
2022-09-24T11:49:56.899Z,20.94
2022-09-24T11:52:38.513Z,20.73
2022-09-24T11:55:31.817Z,20.45
2022-09-24T11:58:18.157Z,20.37
2022-09-24T12:00:53.665Z,20.54
2022-09-24T12:03:38.019Z,20.69
2022-09-24T12:06:19.378Z,20.60
2022-09-24T12:08:49.818Z,20.64
2022-09-24T12:11:33.294Z,20.58
2022-09-24T12:14:12.489Z,20.76
2022-09-24T12:16:45.697Z,20.73
2022-09-24T12:19:30.902Z,20.34
2022-09-24T12:22:01.327Z,20.55
2022-09-24T12:24:33.445Z,20.67
2022-09-24T12:27:23.444Z,20.97
2022-09-24T12:30:25.492Z,21.01
2022-09-24T12:33:01.462Z,20.96
2022-09-24T12:35:45.373Z,21.01
2022-09-24T12:38:36.578Z,20.64
2022-09-24T12:41:26.684Z,20.54
2022-09-24T12:44:12.187Z,20.29
2022-09-24T12:46:48.705Z,20.36
2022-09-24T12:49:30.530Z,20.64
2022-09-24T12:52:17.794Z,20.45
2022-09-24T12:54:46.111Z,20.34
2022-09-24T12:57:26.055Z,20.47
2022-09-24T12:59:58.102Z,20.45
2022-09-24T13:02:28.520Z,20.43
2022-09-24T13:05:01.989Z,20.57
2022-09-24T13:07:36.894Z,20.15
2022-09-24T13:10:18.874Z,20.04
2022-09-24T13:12:47.676Z,19.87
2022-09-24T13:15:33.728Z,19.94
2022-09-24T13:18:08.213Z,19.91
2022-09-24T13:20:37.762Z,19.81
2022-09-24T13:23:16.583Z,19.77
2022-09-24T13:26:08.097Z,19.85
2022-09-24T13:28:56.164Z,20.05
2022-09-24T13:31:30.890Z,20.10
2022-09-24T13:34:11.011Z,20.21
2022-09-24T13:36:48.093Z,20.29
2022-09-24T13:39:18.658Z,20.42
2022-09-24T13:41:56.479Z,20.52
2022-09-24T13:44:38.517Z,20.21
2022-09-24T13:47:17.463Z,19.79
2022-09-24T13:49:48.102Z,19.70
2022-09-24T13:52:36.098Z,19.58
2022-09-24T13:55:12.474Z,19.50
2022-09-24T13:57:46.831Z,19.69
2022-09-24T14:00:26.332Z,19.88
2022-09-24T14:03:03.287Z,20.11
2022-09-24T14:05:35.413Z,20.13
2022-09-24T14:08:08.826Z,20.03
2022-09-24T14:10:37.431Z,19.92
2022-09-24T14:13:13.880Z,19.68
2022-09-24T14:15:58.007Z,19.72
2022-09-24T14:18:28.265Z,19.77
2022-09-24T14:21:07.770Z,19.83
2022-09-24T14:24:03.972Z,19.77
2022-09-24T14:26:49.250Z,19.84
2022-09-24T14:29:22.635Z,19.60
2022-09-24T14:32:02.978Z,19.50
2022-09-24T14:34:34.981Z,19.40
2022-09-24T14:37:12.470Z,19.31
2022-09-24T14:39:46.422Z,19.37
2022-09-24T14:42:41.602Z,19.38
2022-09-24T14:45:18.721Z,19.15
2022-09-24T14:47:46.992Z,19.02
2022-09-24T14:50:35.545Z,18.93
2022-09-24T14:53:22.812Z,18.82
2022-09-24T14:55:53.215Z,18.79
2022-09-24T14:58:30.415Z,18.77
2022-09-24T15:01:05.820Z,18.71
2022-09-24T15:03:38.983Z,18.78
2022-09-24T15:06:18.128Z,18.78
2022-09-24T15:09:17.931Z,18.74
2022-09-24T15:11:46.630Z,18.72
2022-09-24T15:14:16.842Z,18.55
2022-09-24T15:16:47.592Z,18.26
2022-09-24T15:19:20.073Z,18.29
2022-09-24T15:21:52.929Z,18.32
2022-09-24T15:24:22.204Z,18.27
2022-09-24T15:27:16.091Z,18.23
2022-09-24T15:29:44.815Z,18.24
2022-09-24T15:32:18.149Z,18.18
2022-09-24T15:34:46.494Z,18.06
2022-09-24T15:37:20.295Z,18.09
2022-09-24T15:39:49.938Z,18.16
2022-09-24T15:42:21.314Z,18.19
2022-09-24T15:44:50.723Z,18.22
2022-09-24T15:47:18.955Z,18.27
2022-09-24T15:49:46.792Z,18.27
2022-09-24T15:52:33.142Z,18.26
2022-09-24T15:55:03.058Z,18.29
2022-09-24T15:57:30.417Z,18.32
2022-09-24T15:59:57.848Z,18.25
2022-09-24T16:02:32.629Z,18.33
2022-09-24T16:05:04.204Z,18.34
2022-09-24T16:07:34.964Z,18.19
2022-09-24T16:10:02.373Z,18.09
2022-09-24T16:12:29.726Z,18.02
2022-09-24T16:14:59.291Z,17.92
2022-09-24T16:17:28.175Z,17.96
2022-09-24T16:19:58.533Z,17.87
2022-09-24T16:22:26.036Z,17.87
2022-09-24T16:24:54.271Z,17.88
2022-09-24T16:27:21.692Z,17.94
2022-09-24T16:29:50.164Z,17.92
2022-09-24T16:32:19.475Z,18.02
2022-09-24T16:34:47.295Z,18.02
2022-09-24T16:37:17.067Z,17.93
2022-09-24T16:39:44.479Z,17.93
2022-09-24T16:42:11.897Z,17.84
2022-09-24T16:44:39.312Z,17.81
2022-09-24T16:47:06.898Z,17.82
2022-09-24T16:49:36.315Z,17.76
2022-09-24T16:52:04.516Z,17.79
2022-09-24T16:54:32.876Z,17.72
2022-09-24T16:57:01.942Z,17.72
2022-09-24T16:59:31.694Z,17.71
2022-09-24T17:01:59.900Z,17.95
2022-09-24T17:04:27.742Z,17.89
2022-09-24T17:06:56.440Z,17.94
2022-09-24T17:09:42.895Z,17.94
2022-09-24T17:12:11.851Z,18.08
2022-09-24T17:14:39.734Z,17.96
2022-09-24T17:17:07.284Z,18.01
2022-09-24T17:19:34.726Z,17.98
2022-09-24T17:22:02.619Z,17.92
2022-09-24T17:24:30.447Z,17.69
2022-09-24T17:26:58.085Z,17.60
2022-09-24T17:29:30.443Z,17.54
2022-09-24T17:32:00.140Z,17.53
2022-09-24T17:34:27.784Z,17.46
2022-09-24T17:36:57.184Z,17.49
2022-09-24T17:39:24.711Z,17.36
2022-09-24T17:41:54.094Z,17.36
2022-09-24T17:44:21.521Z,17.35
2022-09-24T17:46:48.976Z,17.31
2022-09-24T17:49:16.898Z,17.25
2022-09-24T17:51:46.694Z,17.25
2022-09-24T17:54:15.967Z,17.09
2022-09-24T17:56:45.587Z,17.10
2022-09-24T17:59:14.206Z,16.97
2022-09-24T18:01:44.823Z,16.94
2022-09-24T18:04:15.861Z,16.95
2022-09-24T18:06:45.074Z,16.96
2022-09-24T18:09:15.134Z,16.83
2022-09-24T18:11:48.675Z,16.60
2022-09-24T18:14:23.222Z,16.50
2022-09-24T18:16:51.472Z,16.60
2022-09-24T18:19:19.132Z,16.53
2022-09-24T18:21:49.637Z,16.33
2022-09-24T18:24:20.014Z,16.32
2022-09-24T18:26:52.688Z,16.37
2022-09-24T18:29:21.529Z,16.13
2022-09-24T18:31:51.807Z,16.06
2022-09-24T18:34:20.961Z,16.17
2022-09-24T18:36:48.336Z,16.17
2022-09-24T18:39:24.742Z,16.12
2022-09-24T18:41:54.282Z,15.96
2022-09-24T18:44:21.791Z,15.98
2022-09-24T18:46:50.198Z,15.86
2022-09-24T18:49:17.707Z,15.76
2022-09-24T18:51:46.667Z,15.67
2022-09-24T18:54:14.938Z,15.76
2022-09-24T18:56:45.540Z,15.84
2022-09-24T18:59:18.398Z,15.89
2022-09-24T19:01:49.872Z,15.75
2022-09-24T19:04:18.194Z,15.60
2022-09-24T19:06:52.254Z,15.55
2022-09-24T19:09:21.972Z,15.50
2022-09-24T19:11:50.167Z,15.46
2022-09-24T19:14:21.964Z,15.51
2022-09-24T19:16:49.369Z,15.39
2022-09-24T19:19:16.782Z,15.49
2022-09-24T19:21:47.063Z,15.54
2022-09-24T19:24:14.762Z,15.38
2022-09-24T19:26:43.621Z,15.45
2022-09-24T19:29:13.589Z,15.36
2022-09-24T19:31:43.000Z,15.36
2022-09-24T19:34:12.958Z,15.38
2022-09-24T19:36:45.489Z,15.19
2022-09-24T19:39:16.331Z,15.22
2022-09-24T19:41:44.946Z,15.25
2022-09-24T19:44:12.666Z,15.15
2022-09-24T19:46:41.156Z,15.17
2022-09-24T19:49:08.988Z,15.16
2022-09-24T19:51:37.035Z,15.38
2022-09-24T19:54:07.564Z,15.43
2022-09-24T19:56:36.599Z,15.44
2022-09-24T19:59:05.424Z,15.41
2022-09-24T20:01:34.235Z,15.36
2022-09-24T20:04:05.667Z,15.51
2022-09-24T20:06:35.124Z,15.53
2022-09-24T20:09:03.303Z,15.47
2022-09-24T20:11:33.386Z,15.51
2022-09-24T20:14:03.081Z,15.42
2022-09-24T20:16:33.569Z,15.45
2022-09-24T20:19:02.402Z,15.39
2022-09-24T20:21:34.811Z,15.51
2022-09-24T20:24:06.758Z,15.49
2022-09-24T20:26:53.801Z,15.48
2022-09-24T20:29:23.062Z,15.51
2022-09-24T20:31:53.307Z,15.44
2022-09-24T20:34:28.687Z,15.60
2022-09-24T20:37:01.380Z,15.65
2022-09-24T20:39:30.194Z,15.74
2022-09-24T20:42:02.447Z,15.68
2022-09-24T20:44:30.988Z,15.67
2022-09-24T20:46:59.642Z,15.56
2022-09-24T20:49:28.311Z,15.47
2022-09-24T20:51:57.795Z,15.38
2022-09-24T20:54:28.323Z,15.30
2022-09-24T20:56:57.175Z,15.27
2022-09-24T20:59:27.454Z,15.28
2022-09-24T21:01:55.440Z,15.17
2022-09-24T21:04:24.065Z,15.11
2022-09-24T21:06:52.417Z,15.00
2022-09-24T21:09:20.641Z,15.10
2022-09-24T21:11:50.350Z,15.22
2022-09-24T21:14:19.753Z,15.40
2022-09-24T21:16:47.888Z,15.36
2022-09-24T21:19:16.289Z,15.39
2022-09-24T21:21:45.756Z,15.14
2022-09-24T21:24:15.583Z,15.07
2022-09-24T21:26:45.363Z,15.09
2022-09-24T21:29:21.043Z,15.41
2022-09-24T21:31:48.784Z,15.24
2022-09-24T21:34:18.391Z,15.41
2022-09-24T21:36:46.702Z,15.39
2022-09-24T21:39:19.539Z,15.31
2022-09-24T21:41:51.430Z,15.03
2022-09-24T21:44:19.540Z,15.06
2022-09-24T21:46:49.323Z,15.05
2022-09-24T21:49:18.071Z,15.11
2022-09-24T21:51:47.048Z,15.14
2022-09-24T21:54:17.467Z,15.16
2022-09-24T21:56:47.100Z,15.17
2022-09-24T21:59:35.665Z,14.95
2022-09-24T22:02:04.407Z,14.93
2022-09-24T22:04:33.316Z,14.84
2022-09-24T22:07:02.556Z,14.86
2022-09-24T22:09:32.734Z,14.96
2022-09-24T22:12:04.625Z,14.89
2022-09-24T22:14:34.833Z,14.75
2022-09-24T22:17:04.028Z,14.84
2022-09-24T22:19:31.691Z,14.77
2022-09-24T22:21:59.157Z,14.73
2022-09-24T22:24:27.626Z,14.62
2022-09-24T22:26:55.296Z,14.50
2022-09-24T22:29:23.042Z,14.51
2022-09-24T22:31:51.633Z,14.55
2022-09-24T22:34:37.474Z,14.57
2022-09-24T22:37:06.999Z,14.50
2022-09-24T22:39:35.250Z,14.39
2022-09-24T22:42:02.675Z,14.38
2022-09-24T22:44:30.021Z,14.28
2022-09-24T22:46:58.248Z,14.30
2022-09-24T22:49:27.273Z,14.45
2022-09-24T22:51:54.940Z,14.48
2022-09-24T22:54:24.288Z,14.31
2022-09-24T22:56:52.255Z,14.18
2022-09-24T22:59:19.607Z,14.14
2022-09-24T23:01:48.788Z,14.19
2022-09-24T23:04:17.027Z,14.19
2022-09-24T23:06:44.831Z,14.27
2022-09-24T23:09:12.093Z,14.23
2022-09-24T23:11:40.706Z,14.18
2022-09-24T23:14:14.261Z,14.32
2022-09-24T23:16:43.998Z,14.21
2022-09-24T23:19:17.457Z,14.20
2022-09-24T23:21:48.497Z,14.14
2022-09-24T23:24:21.997Z,14.08
2022-09-24T23:26:51.242Z,14.18
2022-09-24T23:29:18.625Z,14.13
2022-09-24T23:31:46.495Z,14.28
2022-09-24T23:34:14.677Z,14.23
2022-09-24T23:36:46.261Z,14.32
2022-09-24T23:39:17.492Z,14.23
2022-09-24T23:41:46.624Z,14.13
2022-09-24T23:44:14.033Z,14.13
2022-09-24T23:46:42.606Z,14.14
2022-09-24T23:49:10.362Z,14.06
2022-09-24T23:51:38.311Z,14.12
2022-09-24T23:54:08.010Z,14.18
2022-09-24T23:56:35.831Z,14.26
2022-09-24T23:59:03.333Z,14.13
